createdAt,value
2017-07-18T00:00:36.130Z,0
2017-07-18T00:01:36.153Z,0
2017-07-18T00:02:36.206Z,0
2017-07-18T00:03:36.137Z,0
2017-07-18T00:04:36.180Z,0
2017-07-18T00:05:36.168Z,0
2017-07-18T00:06:36.096Z,0
2017-07-18T00:07:35.765Z,0
2017-07-18T00:08:36.079Z,0
2017-07-18T00:09:36.045Z,0
2017-07-18T00:10:36.032Z,0
2017-07-18T00:11:36.020Z,0
2017-07-18T00:12:36.297Z,0
2017-07-18T00:13:35.977Z,0
2017-07-18T00:14:36.000Z,0
2017-07-18T00:15:36.007Z,0
2017-07-18T00:16:36.246Z,0
2017-07-18T00:17:35.965Z,0
2017-07-18T00:18:36.246Z,0
2017-07-18T00:19:36.275Z,0
2017-07-18T00:20:36.219Z,0
2017-07-18T00:21:35.964Z,0
2017-07-18T00:22:35.566Z,0
2017-07-18T00:23:36.206Z,0
2017-07-18T00:24:35.576Z,0
2017-07-18T00:25:36.138Z,0
2017-07-18T00:26:36.098Z,0
2017-07-18T00:27:36.185Z,0
2017-07-18T00:28:36.079Z,0
2017-07-18T00:29:35.750Z,0
2017-07-18T00:30:36.080Z,0
2017-07-18T00:31:35.424Z,0
2017-07-18T00:32:36.032Z,0
2017-07-18T00:33:35.996Z,0
2017-07-18T00:34:35.984Z,0
2017-07-18T00:35:35.326Z,0
2017-07-18T00:36:36.042Z,0
2017-07-18T00:37:35.616Z,0
2017-07-18T00:38:35.626Z,0
2017-07-18T00:39:35.658Z,0
2017-07-18T00:40:35.962Z,0
2017-07-18T00:41:35.235Z,0
2017-07-18T00:42:35.556Z,0
2017-07-18T00:43:35.522Z,0
2017-07-18T00:44:35.517Z,0
2017-07-18T00:45:35.494Z,0
2017-07-18T00:46:35.787Z,0
2017-07-18T00:47:35.474Z,0
2017-07-18T00:48:35.165Z,0
2017-07-18T00:49:34.827Z,0
2017-07-18T00:50:35.837Z,0
2017-07-18T00:51:35.743Z,0
2017-07-18T00:52:35.725Z,0
2017-07-18T00:53:35.465Z,0
2017-07-18T00:54:35.415Z,0
2017-07-18T00:55:35.021Z,0
2017-07-18T00:56:35.677Z,0
2017-07-18T00:57:35.664Z,0
2017-07-18T00:58:35.007Z,0
2017-07-18T00:59:35.602Z,0
2017-07-18T01:00:35.294Z,0
2017-07-18T01:01:34.946Z,0
2017-07-18T01:02:35.087Z,0
2017-07-18T01:03:35.526Z,0
2017-07-18T01:04:34.904Z,0
2017-07-18T01:05:35.304Z,0
2017-07-18T01:06:34.884Z,0
2017-07-18T01:07:34.845Z,0
2017-07-18T01:08:34.846Z,0
2017-07-18T01:09:35.114Z,0
2017-07-18T01:10:35.426Z,0
2017-07-18T01:11:35.426Z,0
2017-07-18T01:12:34.787Z,0
2017-07-18T01:13:35.046Z,0
2017-07-18T01:14:35.056Z,0
2017-07-18T01:15:35.332Z,0
2017-07-18T01:16:34.726Z,0
2017-07-18T01:17:34.687Z,0
2017-07-18T01:18:35.289Z,0
2017-07-18T01:19:34.966Z,0
2017-07-18T01:20:34.786Z,0
2017-07-18T01:21:34.656Z,0
2017-07-18T01:22:34.934Z,0
2017-07-18T01:23:34.588Z,0
2017-07-18T01:24:34.018Z,0
2017-07-18T01:25:34.888Z,0
2017-07-18T01:26:35.175Z,0
2017-07-18T01:27:34.849Z,0
2017-07-18T01:28:35.185Z,0
2017-07-18T01:29:34.822Z,0
2017-07-18T01:30:35.108Z,0
2017-07-18T01:31:35.104Z,0
2017-07-18T01:32:34.778Z,0
2017-07-18T01:33:34.457Z,0
2017-07-18T01:34:34.741Z,0
2017-07-18T01:35:34.746Z,0
2017-07-18T01:36:34.726Z,0
2017-07-18T01:37:34.392Z,0
2017-07-18T01:38:34.675Z,0
2017-07-18T01:39:34.976Z,0
2017-07-18T01:40:34.638Z,0
2017-07-18T01:41:34.946Z,0
2017-07-18T01:42:34.637Z,0
2017-07-18T01:43:34.606Z,0
2017-07-18T01:44:34.886Z,0
2017-07-18T01:45:34.546Z,0
2017-07-18T01:46:34.557Z,0
2017-07-18T01:47:34.850Z,0
2017-07-18T01:48:34.526Z,0
2017-07-18T01:49:34.806Z,0
2017-07-18T01:50:34.837Z,0
2017-07-18T01:51:34.805Z,0
2017-07-18T01:52:33.935Z,0
2017-07-18T01:53:34.727Z,0
2017-07-18T01:54:34.446Z,0
2017-07-18T01:55:33.804Z,0
2017-07-18T01:56:34.098Z,0
2017-07-18T01:57:34.096Z,0
2017-07-18T01:58:34.667Z,0
2017-07-18T01:59:34.049Z,0
2017-07-18T02:00:33.758Z,0
2017-07-18T02:01:34.636Z,0
2017-07-18T02:02:34.014Z,0
2017-07-18T02:03:33.988Z,0
2017-07-18T02:04:34.288Z,0
2017-07-18T02:05:33.790Z,0
2017-07-18T02:06:34.230Z,0
2017-07-18T02:07:33.627Z,0
2017-07-18T02:08:33.926Z,0
2017-07-18T02:09:33.897Z,0
2017-07-18T02:10:34.194Z,0
2017-07-18T02:11:33.917Z,0
2017-07-18T02:12:33.917Z,0
2017-07-18T02:13:34.105Z,0
2017-07-18T02:14:34.417Z,0
2017-07-18T02:15:33.799Z,0
2017-07-18T02:16:33.801Z,0
2017-07-18T02:17:34.047Z,0
2017-07-18T02:18:34.047Z,0
2017-07-18T02:19:33.734Z,0
2017-07-18T02:20:34.064Z,0
2017-07-18T02:21:33.676Z,0
2017-07-18T02:22:34.048Z,0
2017-07-18T02:23:34.274Z,0
2017-07-18T02:24:33.037Z,0
2017-07-18T02:25:33.947Z,0
2017-07-18T02:26:33.632Z,0
2017-07-18T02:27:33.913Z,0
2017-07-18T02:28:33.926Z,0
2017-07-18T02:29:34.306Z,0
2017-07-18T02:30:34.179Z,0
2017-07-18T02:31:33.895Z,0
2017-07-18T02:32:33.995Z,0
2017-07-18T02:33:33.514Z,0
2017-07-18T02:34:34.107Z,0
2017-07-18T02:35:33.774Z,0
2017-07-18T02:36:34.073Z,0
2017-07-18T02:37:33.827Z,0
2017-07-18T02:38:33.734Z,0
2017-07-18T02:39:33.737Z,0
2017-07-18T02:40:33.728Z,0
2017-07-18T02:41:33.705Z,0
2017-07-18T02:42:33.991Z,0
2017-07-18T02:43:33.683Z,0
2017-07-18T02:44:33.707Z,0
2017-07-18T02:45:33.636Z,0
2017-07-18T02:46:33.653Z,0
2017-07-18T02:47:33.367Z,0
2017-07-18T02:48:33.947Z,0
2017-07-18T02:49:33.571Z,0
2017-07-18T02:50:33.680Z,0
2017-07-18T02:51:33.540Z,0
2017-07-18T02:52:33.836Z,0
2017-07-18T02:53:33.808Z,0
2017-07-18T02:54:33.867Z,0
2017-07-18T02:55:33.823Z,0
2017-07-18T02:56:33.777Z,0
2017-07-18T02:57:33.443Z,0
2017-07-18T02:58:33.841Z,0
2017-07-18T02:59:33.771Z,0
2017-07-18T03:00:33.767Z,0
2017-07-18T03:01:33.358Z,0
2017-07-18T03:02:33.724Z,0
2017-07-18T03:03:33.351Z,0
2017-07-18T03:04:33.636Z,0
2017-07-18T03:05:33.670Z,0
2017-07-18T03:06:33.651Z,0
2017-07-18T03:07:33.605Z,0
2017-07-18T03:08:33.616Z,0
2017-07-18T03:09:33.237Z,0
2017-07-18T03:10:32.908Z,0
2017-07-18T03:11:33.555Z,0
2017-07-18T03:12:33.588Z,0
2017-07-18T03:13:32.903Z,0
2017-07-18T03:14:32.854Z,0
2017-07-18T03:15:33.139Z,0
2017-07-18T03:16:32.831Z,0
2017-07-18T03:17:33.412Z,0
2017-07-18T03:18:33.094Z,0
2017-07-18T03:19:32.754Z,0
2017-07-18T03:20:33.094Z,0
2017-07-18T03:21:33.392Z,0
2017-07-18T03:22:33.120Z,0
2017-07-18T03:23:33.032Z,0
2017-07-18T03:24:33.318Z,0
2017-07-18T03:25:32.672Z,0
2017-07-18T03:26:32.740Z,0
2017-07-18T03:27:32.952Z,0
2017-07-18T03:28:33.302Z,0
2017-07-18T03:29:33.218Z,0
2017-07-18T03:30:32.596Z,0
2017-07-18T03:31:32.245Z,0
2017-07-18T03:32:33.202Z,0
2017-07-18T03:33:33.147Z,0
2017-07-18T03:34:32.530Z,0
2017-07-18T03:35:33.113Z,0
2017-07-18T03:36:32.254Z,0
2017-07-18T03:37:32.780Z,0
2017-07-18T03:38:32.772Z,5
2017-07-18T03:39:32.149Z,5
2017-07-18T03:40:32.444Z,5
2017-07-18T03:41:32.725Z,5
2017-07-18T03:42:32.728Z,5
2017-07-18T03:43:32.685Z,5
2017-07-18T03:44:32.661Z,5
2017-07-18T03:45:32.653Z,5
2017-07-18T03:46:32.934Z,5
2017-07-18T03:47:32.933Z,5
2017-07-18T03:48:32.627Z,5
2017-07-18T03:49:32.276Z,5
2017-07-18T03:50:32.277Z,5
2017-07-18T03:51:32.226Z,5
2017-07-18T03:52:32.240Z,10
2017-07-18T03:53:32.215Z,10
2017-07-18T03:54:32.508Z,10
2017-07-18T03:55:32.504Z,10
2017-07-18T03:56:32.183Z,10
2017-07-18T03:57:32.818Z,10
2017-07-18T03:58:32.120Z,10
2017-07-18T03:59:32.735Z,10
2017-07-18T04:00:32.193Z,10
2017-07-18T04:01:32.385Z,10
2017-07-18T04:02:32.674Z,10
2017-07-18T04:03:32.364Z,10
2017-07-18T04:04:32.635Z,10
2017-07-18T04:05:32.337Z,15
2017-07-18T04:06:32.307Z,15
2017-07-18T04:07:32.407Z,15
2017-07-18T04:08:32.588Z,15
2017-07-18T04:09:32.577Z,15
2017-07-18T04:10:31.967Z,15
2017-07-18T04:11:32.516Z,15
2017-07-18T04:12:31.933Z,15
2017-07-18T04:13:32.496Z,20
2017-07-18T04:14:31.993Z,20
2017-07-18T04:15:31.659Z,20
2017-07-18T04:16:31.872Z,20
2017-07-18T04:17:32.445Z,20
2017-07-18T04:18:31.607Z,20
2017-07-18T04:19:32.384Z,25
2017-07-18T04:20:31.871Z,25
2017-07-18T04:21:31.777Z,25
2017-07-18T04:22:31.745Z,25
2017-07-18T04:23:31.403Z,25
2017-07-18T04:24:32.317Z,25
2017-07-18T04:25:32.327Z,25
2017-07-18T04:26:31.998Z,25
2017-07-18T04:27:31.370Z,30
2017-07-18T04:28:31.969Z,30
2017-07-18T04:29:31.936Z,30
2017-07-18T04:30:31.921Z,30
2017-07-18T04:31:31.286Z,30
2017-07-18T04:32:31.592Z,30
2017-07-18T04:33:31.949Z,30
2017-07-18T04:34:31.845Z,35
2017-07-18T04:35:31.845Z,35
2017-07-18T04:36:31.207Z,35
2017-07-18T04:37:31.574Z,35
2017-07-18T04:38:31.498Z,35
2017-07-18T04:39:31.752Z,40
2017-07-18T04:40:32.101Z,40
2017-07-18T04:41:31.723Z,40
2017-07-18T04:42:31.427Z,40
2017-07-18T04:43:31.784Z,40
2017-07-18T04:44:31.404Z,40
2017-07-18T04:45:31.683Z,40
2017-07-18T04:46:31.374Z,40
2017-07-18T04:47:31.745Z,45
2017-07-18T04:48:31.067Z,45
2017-07-18T04:49:31.297Z,45
2017-07-18T04:50:31.300Z,45
2017-07-18T04:51:31.881Z,45
2017-07-18T04:52:31.237Z,45
2017-07-18T04:53:31.244Z,45
2017-07-18T04:54:31.837Z,45
2017-07-18T04:55:31.294Z,45
2017-07-18T04:56:31.197Z,45
2017-07-18T04:57:31.176Z,45
2017-07-18T04:58:31.536Z,45
2017-07-18T04:59:31.443Z,45
2017-07-18T05:00:31.426Z,45
2017-07-18T05:01:31.867Z,45
2017-07-18T05:02:31.124Z,45
2017-07-18T05:03:31.402Z,45
2017-07-18T05:04:31.665Z,50
2017-07-18T05:05:31.644Z,50
2017-07-18T05:06:31.365Z,55
2017-07-18T05:07:30.751Z,55
2017-07-18T05:08:31.655Z,55
2017-07-18T05:09:31.319Z,55
2017-07-18T05:10:31.577Z,55
2017-07-18T05:11:30.958Z,55
2017-07-18T05:12:31.590Z,60
2017-07-18T05:13:31.214Z,60
2017-07-18T05:14:31.327Z,55
2017-07-18T05:15:31.475Z,55
2017-07-18T05:16:31.590Z,60
2017-07-18T05:17:31.157Z,60
2017-07-18T05:18:31.540Z,60
2017-07-18T05:19:31.428Z,55
2017-07-18T05:20:31.502Z,60
2017-07-18T05:21:31.097Z,60
2017-07-18T05:22:31.406Z,60
2017-07-18T05:23:31.370Z,60
2017-07-18T05:24:31.067Z,60
2017-07-18T05:25:31.514Z,60
2017-07-18T05:26:31.407Z,65
2017-07-18T05:27:31.411Z,65
2017-07-18T05:28:30.695Z,65
2017-07-18T05:29:31.416Z,65
2017-07-18T05:30:31.280Z,65
2017-07-18T05:31:31.025Z,65
2017-07-18T05:32:31.251Z,65
2017-07-18T05:33:31.290Z,65
2017-07-18T05:34:30.898Z,65
2017-07-18T05:35:31.187Z,70
2017-07-18T05:36:30.540Z,70
2017-07-18T05:37:31.137Z,70
2017-07-18T05:38:30.812Z,70
2017-07-18T05:39:30.806Z,70
2017-07-18T05:40:30.817Z,75
2017-07-18T05:41:30.527Z,75
2017-07-18T05:42:30.737Z,75
2017-07-18T05:43:30.761Z,75
2017-07-18T05:44:30.496Z,80
2017-07-18T05:45:30.835Z,80
2017-07-18T05:46:30.697Z,85
2017-07-18T05:47:30.378Z,85
2017-07-18T05:48:30.726Z,90
2017-07-18T05:49:30.657Z,90
2017-07-18T05:50:30.666Z,95
2017-07-18T05:51:31.008Z,95
2017-07-18T05:52:29.986Z,95
2017-07-18T05:53:31.008Z,100
2017-07-18T05:54:30.576Z,105
2017-07-18T05:55:30.274Z,110
2017-07-18T05:56:30.564Z,115
2017-07-18T05:57:30.875Z,120
2017-07-18T05:58:30.234Z,120
2017-07-18T05:59:30.218Z,125
2017-07-18T06:00:30.836Z,125
2017-07-18T06:01:30.836Z,125
2017-07-18T06:02:30.167Z,130
2017-07-18T06:03:30.434Z,135
2017-07-18T06:04:30.752Z,140
2017-07-18T06:05:30.389Z,140
2017-07-18T06:06:30.734Z,140
2017-07-18T06:07:30.168Z,140
2017-07-18T06:08:30.648Z,135
2017-07-18T06:09:30.081Z,135
2017-07-18T06:10:30.327Z,140
2017-07-18T06:11:29.699Z,130
2017-07-18T06:12:30.347Z,130
2017-07-18T06:13:30.296Z,130
2017-07-18T06:14:29.956Z,130
2017-07-18T06:15:29.655Z,130
2017-07-18T06:16:30.239Z,130
2017-07-18T06:17:29.597Z,130
2017-07-18T06:18:30.536Z,130
2017-07-18T06:19:30.226Z,130
2017-07-18T06:20:30.207Z,130
2017-07-18T06:21:30.202Z,135
2017-07-18T06:22:30.550Z,135
2017-07-18T06:23:30.113Z,135
2017-07-18T06:24:30.187Z,135
2017-07-18T06:25:30.442Z,135
2017-07-18T06:26:30.158Z,135
2017-07-18T06:27:30.113Z,135
2017-07-18T06:28:30.416Z,135
2017-07-18T06:29:30.364Z,140
2017-07-18T06:30:30.410Z,145
2017-07-18T06:31:30.043Z,150
2017-07-18T06:32:30.048Z,155
2017-07-18T06:33:29.986Z,165
2017-07-18T06:34:30.050Z,170
2017-07-18T06:35:30.502Z,175
2017-07-18T06:36:30.253Z,175
2017-07-18T06:37:29.916Z,180
2017-07-18T06:38:30.248Z,180
2017-07-18T06:39:29.911Z,180
2017-07-18T06:40:36.462Z,190
2017-07-18T06:41:30.450Z,195
2017-07-18T06:42:31.346Z,195
2017-07-18T06:43:32.516Z,195
2017-07-18T06:44:29.880Z,190
2017-07-18T06:45:30.058Z,190
2017-07-18T06:46:31.614Z,190
2017-07-18T06:47:30.078Z,190
2017-07-18T06:48:30.120Z,195
2017-07-18T06:49:29.597Z,195
2017-07-18T06:50:29.855Z,190
2017-07-18T06:51:57.049Z,190
2017-07-18T06:53:14.431Z,190
2017-07-18T06:53:43.654Z,200
2017-07-18T06:54:45.650Z,195
2017-07-18T06:55:29.432Z,195
2017-07-18T06:56:30.077Z,200
2017-07-18T06:57:30.179Z,200
2017-07-18T06:59:03.132Z,200
2017-07-18T06:59:29.088Z,205
2017-07-18T07:00:55.037Z,215
2017-07-18T07:01:42.108Z,215
2017-07-18T07:02:29.973Z,215
2017-07-18T07:03:36.188Z,220
2017-07-18T07:04:29.397Z,230
2017-07-18T07:05:29.276Z,235
2017-07-18T07:06:29.575Z,235
2017-07-18T07:07:29.547Z,230
2017-07-18T07:08:29.928Z,225
2017-07-18T07:09:29.215Z,230
2017-07-18T07:10:29.216Z,235
2017-07-18T07:11:28.879Z,240
2017-07-18T07:12:29.488Z,240
2017-07-18T07:13:28.857Z,250
2017-07-18T07:14:29.477Z,250
2017-07-18T07:15:29.430Z,255
2017-07-18T07:16:29.805Z,255
2017-07-18T07:17:29.093Z,255
2017-07-18T07:18:29.682Z,260
2017-07-18T07:19:29.425Z,270
2017-07-18T07:20:29.047Z,260
2017-07-18T07:21:29.345Z,270
2017-07-18T07:22:29.030Z,265
2017-07-18T07:23:28.995Z,270
2017-07-18T07:24:29.298Z,265
2017-07-18T07:25:28.978Z,275
2017-07-18T07:26:29.313Z,270
2017-07-18T07:27:28.947Z,280
2017-07-18T07:28:29.241Z,275
2017-07-18T07:29:28.947Z,275
2017-07-18T07:30:29.293Z,275
2017-07-18T07:31:29.256Z,275
2017-07-18T07:32:29.512Z,275
2017-07-18T07:33:29.233Z,280
2017-07-18T07:34:28.895Z,280
2017-07-18T07:35:29.527Z,305
2017-07-18T07:36:29.165Z,305
2017-07-18T07:37:29.145Z,315
2017-07-18T07:38:29.496Z,300
2017-07-18T07:39:29.109Z,285
2017-07-18T07:40:29.495Z,290
2017-07-18T07:41:29.110Z,300
2017-07-18T07:42:29.098Z,290
2017-07-18T07:43:28.784Z,295
2017-07-18T07:44:29.055Z,315
2017-07-18T07:45:29.355Z,315
2017-07-18T07:46:29.030Z,290
2017-07-18T07:47:29.354Z,300
2017-07-18T07:48:29.015Z,300
2017-07-18T07:49:29.018Z,310
2017-07-18T07:50:28.987Z,295
2017-07-18T07:51:29.285Z,290
2017-07-18T07:52:28.967Z,300
2017-07-18T07:53:28.966Z,285
2017-07-18T07:54:29.273Z,320
2017-07-18T07:55:29.263Z,330
2017-07-18T07:56:29.263Z,310
2017-07-18T07:57:28.988Z,300
2017-07-18T07:58:28.630Z,330
2017-07-18T07:59:29.203Z,330
2017-07-18T08:00:29.186Z,360
2017-07-18T08:01:28.885Z,340
2017-07-18T08:02:29.144Z,355
2017-07-18T08:03:28.976Z,340
2017-07-18T08:04:29.144Z,360
2017-07-18T08:05:28.832Z,340
2017-07-18T08:06:28.817Z,355
2017-07-18T08:07:28.826Z,335
2017-07-18T08:08:29.118Z,375
2017-07-18T08:09:29.103Z,370
2017-07-18T08:10:28.847Z,375
2017-07-18T08:11:28.810Z,380
2017-07-18T08:12:29.069Z,375
2017-07-18T08:13:28.777Z,335
2017-07-18T08:14:29.072Z,340
2017-07-18T08:15:28.831Z,370
2017-07-18T08:16:28.737Z,375
2017-07-18T08:17:28.402Z,390
2017-07-18T08:18:28.815Z,400
2017-07-18T08:19:29.052Z,380
2017-07-18T08:20:28.996Z,360
2017-07-18T08:21:29.095Z,345
2017-07-18T08:22:28.993Z,335
2017-07-18T08:23:28.966Z,330
2017-07-18T08:24:28.994Z,315
2017-07-18T08:25:28.932Z,320
2017-07-18T08:26:28.992Z,320
2017-07-18T08:27:28.995Z,325
2017-07-18T08:28:28.915Z,335
2017-07-18T08:29:28.902Z,350
2017-07-18T08:30:28.904Z,340
2017-07-18T08:31:28.895Z,350
2017-07-18T08:32:28.965Z,355
2017-07-18T08:33:28.867Z,350
2017-07-18T08:34:28.544Z,355
2017-07-18T08:35:28.545Z,350
2017-07-18T08:36:28.236Z,390
2017-07-18T08:37:28.217Z,360
2017-07-18T08:38:28.824Z,370
2017-07-18T08:39:28.805Z,355
2017-07-18T08:40:28.804Z,365
2017-07-18T08:41:28.799Z,395
2017-07-18T08:42:28.785Z,360
2017-07-18T08:43:28.801Z,365
2017-07-18T08:44:28.781Z,370
2017-07-18T08:45:28.748Z,365
2017-07-18T08:46:28.204Z,350
2017-07-18T08:47:28.442Z,340
2017-07-18T08:48:28.738Z,325
2017-07-18T08:49:27.788Z,355
2017-07-18T08:50:28.411Z,335
2017-07-18T08:51:28.453Z,330
2017-07-18T08:52:28.700Z,305
2017-07-18T08:53:28.182Z,315
2017-07-18T08:54:28.681Z,330
2017-07-18T08:55:28.459Z,370
2017-07-18T08:56:28.354Z,505
2017-07-18T08:57:28.046Z,650
2017-07-18T08:58:28.384Z,790
2017-07-18T08:59:28.440Z,905
2017-07-18T09:00:28.315Z,1050
2017-07-18T09:01:28.406Z,1255
2017-07-18T09:02:27.719Z,1345
2017-07-18T09:03:28.379Z,1280
2017-07-18T09:04:28.303Z,1230
2017-07-18T09:05:28.613Z,1145
2017-07-18T09:06:28.264Z,1095
2017-07-18T09:07:28.572Z,1175
2017-07-18T09:08:28.354Z,1245
2017-07-18T09:09:28.652Z,1230
2017-07-18T09:10:28.250Z,1300
2017-07-18T09:11:28.548Z,1250
2017-07-18T09:12:28.234Z,1225
2017-07-18T09:13:28.560Z,1285
2017-07-18T09:14:28.526Z,1280
2017-07-18T09:15:28.235Z,1255
2017-07-18T09:16:28.214Z,1220
2017-07-18T09:17:27.900Z,1205
2017-07-18T09:18:28.531Z,1380
2017-07-18T09:19:28.205Z,1390
2017-07-18T09:20:28.517Z,1230
2017-07-18T09:21:27.588Z,1285
2017-07-18T09:22:28.221Z,1310
2017-07-18T09:23:28.501Z,1230
2017-07-18T09:24:28.190Z,1210
2017-07-18T09:25:28.279Z,1215
2017-07-18T09:26:28.521Z,1195
2017-07-18T09:27:28.481Z,1165
2017-07-18T09:28:28.493Z,1075
2017-07-18T09:29:28.502Z,1000
2017-07-18T09:30:27.862Z,1150
2017-07-18T09:31:27.862Z,1250
2017-07-18T09:32:28.494Z,1160
2017-07-18T09:33:27.863Z,1140
2017-07-18T09:34:28.560Z,1185
2017-07-18T09:35:28.534Z,1140
2017-07-18T09:36:28.243Z,1025
2017-07-18T09:37:28.146Z,1110
2017-07-18T09:38:28.495Z,1115
2017-07-18T09:39:28.148Z,1120
2017-07-18T09:40:28.495Z,1150
2017-07-18T09:41:28.486Z,1170
2017-07-18T09:42:28.450Z,1140
2017-07-18T09:43:28.508Z,1080
2017-07-18T09:44:28.494Z,1100
2017-07-18T09:45:28.438Z,1165
2017-07-18T09:46:28.442Z,1090
2017-07-18T09:47:28.164Z,1085
2017-07-18T09:48:28.141Z,1105
2017-07-18T09:49:28.430Z,1055
2017-07-18T09:50:28.118Z,1035
2017-07-18T09:51:28.430Z,1015
2017-07-18T09:52:28.461Z,1025
2017-07-18T09:53:28.437Z,1025
2017-07-18T09:54:28.423Z,990
2017-07-18T09:55:28.417Z,965
2017-07-18T09:56:28.436Z,920
2017-07-18T09:57:28.416Z,945
2017-07-18T09:58:28.424Z,880
2017-07-18T09:59:28.522Z,890
2017-07-18T10:00:28.465Z,900
2017-07-18T10:01:28.443Z,885
2017-07-18T10:02:28.508Z,890
2017-07-18T10:03:28.449Z,925
2017-07-18T10:04:28.129Z,885
2017-07-18T10:05:28.416Z,895
2017-07-18T10:06:28.405Z,925
2017-07-18T10:07:28.455Z,920
2017-07-18T10:08:28.113Z,910
2017-07-18T10:09:28.454Z,875
2017-07-18T10:10:28.415Z,860
2017-07-18T10:11:28.470Z,880
2017-07-18T10:12:28.389Z,870
2017-07-18T10:13:28.097Z,875
2017-07-18T10:14:28.100Z,850
2017-07-18T10:15:28.097Z,870
2017-07-18T10:16:28.104Z,870
2017-07-18T10:17:28.111Z,810
2017-07-18T10:18:28.399Z,775
2017-07-18T10:19:28.182Z,770
2017-07-18T10:20:28.071Z,785
2017-07-18T10:21:28.164Z,775
2017-07-18T10:22:28.361Z,790
2017-07-18T10:23:27.752Z,770
2017-07-18T10:24:28.362Z,740
2017-07-18T10:25:28.365Z,730
2017-07-18T10:26:28.360Z,700
2017-07-18T10:27:28.405Z,730
2017-07-18T10:28:27.836Z,720
2017-07-18T10:29:28.179Z,690
2017-07-18T10:30:28.042Z,625
2017-07-18T10:31:27.747Z,610
2017-07-18T10:32:28.412Z,575
2017-07-18T10:33:28.455Z,420
2017-07-18T10:34:28.348Z,300
2017-07-18T10:35:28.058Z,275
2017-07-18T10:36:28.022Z,270
2017-07-18T10:37:27.740Z,265
2017-07-18T10:38:27.726Z,265
2017-07-18T10:39:27.996Z,260
2017-07-18T10:40:28.317Z,260
2017-07-18T10:41:27.710Z,255
2017-07-18T10:42:27.990Z,255
2017-07-18T10:43:27.720Z,250
2017-07-18T10:44:27.982Z,250
2017-07-18T10:45:28.303Z,250
2017-07-18T10:46:27.968Z,245
2017-07-18T10:47:27.792Z,245
2017-07-18T10:48:27.802Z,245
2017-07-18T10:49:27.704Z,245
2017-07-18T10:50:28.072Z,245
2017-07-18T10:51:28.267Z,245
2017-07-18T10:52:27.963Z,240
2017-07-18T10:53:27.703Z,240
2017-07-18T10:54:28.245Z,240
2017-07-18T10:55:27.665Z,240
2017-07-18T10:56:27.970Z,245
2017-07-18T10:57:28.244Z,245
2017-07-18T10:58:27.600Z,250
2017-07-18T10:59:27.923Z,235
2017-07-18T11:00:27.956Z,240
2017-07-18T11:01:27.939Z,245
2017-07-18T11:02:28.201Z,220
2017-07-18T11:03:27.925Z,200
2017-07-18T11:04:27.579Z,225
2017-07-18T11:05:28.213Z,230
2017-07-18T11:06:28.251Z,255
2017-07-18T11:07:27.871Z,240
2017-07-18T11:08:27.862Z,225
2017-07-18T11:09:27.902Z,225
2017-07-18T11:10:27.545Z,230
2017-07-18T11:11:27.835Z,225
2017-07-18T11:12:28.168Z,245
2017-07-18T11:13:28.241Z,240
2017-07-18T11:14:27.820Z,215
2017-07-18T11:15:27.217Z,210
2017-07-18T11:16:27.830Z,230
2017-07-18T11:17:28.113Z,230
2017-07-18T11:18:27.806Z,230
2017-07-18T11:19:27.592Z,235
2017-07-18T11:20:27.790Z,235
2017-07-18T11:21:27.767Z,235
2017-07-18T11:22:27.767Z,235
2017-07-18T11:23:27.446Z,235
2017-07-18T11:24:27.444Z,240
2017-07-18T11:25:27.736Z,240
2017-07-18T11:26:27.746Z,240
2017-07-18T11:27:27.454Z,235
2017-07-18T11:28:27.735Z,235
2017-07-18T11:29:27.486Z,235
2017-07-18T11:30:27.696Z,235
2017-07-18T11:31:27.770Z,230
2017-07-18T11:32:27.687Z,230
2017-07-18T11:33:27.997Z,230
2017-07-18T11:34:27.989Z,230
2017-07-18T11:35:27.987Z,230
2017-07-18T11:36:27.964Z,225
2017-07-18T11:37:27.728Z,225
2017-07-18T11:38:27.665Z,225
2017-07-18T11:39:27.981Z,225
2017-07-18T11:40:27.343Z,225
2017-07-18T11:41:27.675Z,225
2017-07-18T11:42:27.640Z,225
2017-07-18T11:43:27.630Z,235
2017-07-18T11:44:27.320Z,225
2017-07-18T11:45:27.603Z,225
2017-07-18T11:46:27.610Z,220
2017-07-18T11:47:27.595Z,220
2017-07-18T11:48:27.768Z,225
2017-07-18T11:49:27.580Z,220
2017-07-18T11:50:27.288Z,220
2017-07-18T11:51:27.883Z,220
2017-07-18T11:52:27.923Z,220
2017-07-18T11:53:27.248Z,220
2017-07-18T11:54:27.863Z,215
2017-07-18T11:55:27.531Z,215
2017-07-18T11:56:27.569Z,215
2017-07-18T11:57:27.847Z,215
2017-07-18T11:58:27.517Z,215
2017-07-18T11:59:27.907Z,215
2017-07-18T12:00:27.825Z,210
2017-07-18T12:01:27.822Z,210
2017-07-18T12:02:27.496Z,210
2017-07-18T12:03:27.197Z,210
2017-07-18T12:04:27.798Z,210
2017-07-18T12:05:27.473Z,210
2017-07-18T12:06:27.172Z,210
2017-07-18T12:07:27.476Z,210
2017-07-18T12:08:27.475Z,210
2017-07-18T12:09:27.537Z,210
2017-07-18T12:10:27.743Z,210
2017-07-18T12:11:26.828Z,210
2017-07-18T12:12:27.730Z,205
2017-07-18T12:13:27.751Z,205
2017-07-18T12:14:27.397Z,205
2017-07-18T12:15:27.707Z,205
2017-07-18T12:16:27.701Z,200
2017-07-18T12:17:27.723Z,205
2017-07-18T12:18:27.456Z,200
2017-07-18T12:19:27.096Z,200
2017-07-18T13:08:42.221Z,180
2017-07-18T13:08:54.165Z,180
2017-07-18T13:09:53.836Z,180
2017-07-18T13:10:55.239Z,180
2017-07-18T13:11:53.826Z,180
2017-07-18T13:12:54.166Z,180
2017-07-18T13:13:54.164Z,175
2017-07-18T13:14:54.580Z,180
2017-07-18T13:15:53.806Z,180
2017-07-18T13:16:53.484Z,180
2017-07-18T13:17:54.096Z,175
2017-07-18T13:18:54.428Z,175
2017-07-18T13:19:53.751Z,175
2017-07-18T13:20:54.375Z,180
2017-07-18T13:21:53.767Z,175
2017-07-18T13:22:53.749Z,175
2017-07-18T13:23:54.427Z,175
2017-07-18T13:24:53.751Z,175
2017-07-18T13:25:54.404Z,175
2017-07-18T13:26:53.715Z,175
2017-07-18T13:27:54.342Z,175
2017-07-18T13:28:54.020Z,175
2017-07-18T13:29:54.051Z,175
2017-07-18T13:30:54.307Z,175
2017-07-18T13:31:54.304Z,175
2017-07-18T13:32:53.956Z,175
2017-07-18T13:33:53.975Z,175
2017-07-18T13:34:54.274Z,170
2017-07-18T13:35:54.274Z,170
2017-07-18T13:36:54.274Z,170
2017-07-18T13:37:54.246Z,170
2017-07-18T13:38:54.272Z,170
2017-07-18T13:39:53.925Z,170
2017-07-18T13:40:53.943Z,170
2017-07-18T13:41:53.917Z,170
2017-07-18T13:42:53.901Z,170
2017-07-18T13:43:54.208Z,170
2017-07-18T13:44:54.225Z,170
2017-07-18T13:45:54.184Z,170
2017-07-18T13:46:53.935Z,170
2017-07-18T13:47:53.953Z,170
2017-07-18T13:48:53.604Z,175
2017-07-18T13:49:53.869Z,170
2017-07-18T13:50:54.177Z,170
2017-07-18T13:51:54.172Z,170
2017-07-18T13:52:53.887Z,170
2017-07-18T13:53:53.839Z,170
2017-07-18T13:54:53.543Z,170
2017-07-18T13:55:53.878Z,170
2017-07-18T13:56:53.503Z,170
2017-07-18T13:57:53.825Z,170
2017-07-18T13:58:52.874Z,170
2017-07-18T13:59:53.194Z,170
2017-07-18T14:00:53.471Z,170
2017-07-18T14:01:53.472Z,170
2017-07-18T14:02:53.146Z,170
2017-07-18T14:03:54.140Z,170
2017-07-18T14:04:54.069Z,170
2017-07-18T14:05:54.065Z,170
2017-07-18T14:06:53.445Z,170
2017-07-18T14:07:53.456Z,165
2017-07-18T14:08:53.740Z,165
2017-07-18T14:09:54.047Z,165
2017-07-18T14:10:53.715Z,165
2017-07-18T14:11:53.409Z,165
2017-07-18T14:12:54.029Z,165
2017-07-18T14:13:53.713Z,165
2017-07-18T14:14:54.036Z,165
2017-07-18T14:15:53.682Z,160
2017-07-18T14:16:53.391Z,160
2017-07-18T14:17:53.994Z,160
2017-07-18T14:18:53.682Z,160
2017-07-18T14:19:53.993Z,160
2017-07-18T14:20:53.674Z,160
2017-07-18T14:21:53.958Z,160
2017-07-18T14:22:53.318Z,160
2017-07-18T14:23:53.974Z,160
2017-07-18T14:24:53.640Z,160
2017-07-18T14:25:53.943Z,155
2017-07-18T14:26:53.936Z,155
2017-07-18T14:27:53.894Z,155
2017-07-18T14:28:53.595Z,155
2017-07-18T14:29:53.893Z,155
2017-07-18T14:30:53.588Z,155
2017-07-18T14:31:53.274Z,150
2017-07-18T14:32:54.021Z,150
2017-07-18T14:33:53.897Z,150
2017-07-18T14:34:53.976Z,150
2017-07-18T14:35:53.581Z,145
2017-07-18T14:36:53.542Z,150
2017-07-18T14:37:53.251Z,150
2017-07-18T14:38:53.526Z,145
2017-07-18T14:39:53.525Z,145
2017-07-18T14:40:53.507Z,145
2017-07-18T14:41:53.223Z,140
2017-07-18T14:42:53.221Z,145
2017-07-18T14:43:53.886Z,140
2017-07-18T14:44:53.501Z,140
2017-07-18T14:45:53.842Z,140
2017-07-18T14:46:53.513Z,140
2017-07-18T14:47:53.487Z,140
2017-07-18T14:48:53.173Z,135
2017-07-18T14:49:53.762Z,135
2017-07-18T14:50:53.748Z,135
2017-07-18T14:51:53.443Z,135